createdAt,value
2017-08-25T00:00:10.106Z,58.20
2017-08-25T00:02:37.631Z,58.90
2017-08-25T00:05:05.154Z,59.00
2017-08-25T00:07:32.679Z,59.10
2017-08-25T00:10:00.235Z,60.00
2017-08-25T00:12:27.757Z,60.60
2017-08-25T00:14:55.286Z,60.30
2017-08-25T00:17:22.816Z,60.50
2017-08-25T00:19:50.341Z,59.90
2017-08-25T00:22:17.902Z,59.50
2017-08-25T00:24:45.442Z,59.10
2017-08-25T00:27:12.973Z,59.00
2017-08-25T00:29:40.505Z,59.10
2017-08-25T00:32:08.042Z,59.50
2017-08-25T00:34:35.589Z,59.40
2017-08-25T00:37:03.205Z,59.10
2017-08-25T00:39:30.734Z,58.80
2017-08-25T00:41:58.278Z,58.70
2017-08-25T00:44:25.809Z,59.00
2017-08-25T00:46:53.358Z,58.90
2017-08-25T00:49:20.882Z,58.80
2017-08-25T00:51:48.402Z,58.70
2017-08-25T00:54:16.693Z,58.40
2017-08-25T00:56:44.217Z,58.30
2017-08-25T00:59:11.774Z,58.20
2017-08-25T01:01:39.305Z,58.20
2017-08-25T01:04:06.844Z,58.30
2017-08-25T01:06:34.374Z,58.20
2017-08-25T01:09:01.902Z,58.60
2017-08-25T01:11:29.450Z,58.40
2017-08-25T01:13:56.986Z,58.40
2017-08-25T01:16:24.514Z,58.40
2017-08-25T01:18:52.046Z,58.40
2017-08-25T01:21:19.573Z,58.50
2017-08-25T01:23:47.126Z,59.00
2017-08-25T01:26:14.681Z,58.70
2017-08-25T01:28:42.210Z,58.80
2017-08-25T01:31:09.733Z,58.80
2017-08-25T01:33:37.263Z,58.90
2017-08-25T01:36:04.817Z,58.90
2017-08-25T01:38:32.346Z,59.20
2017-08-25T01:40:59.870Z,59.20
2017-08-25T01:43:27.403Z,59.30
2017-08-25T01:45:54.936Z,58.80
2017-08-25T01:48:22.486Z,59.50
2017-08-25T01:50:50.014Z,59.60
2017-08-25T01:53:18.305Z,60.60
2017-08-25T01:55:45.834Z,60.60
2017-08-25T01:58:13.358Z,61.80
2017-08-25T02:00:40.918Z,61.60
2017-08-25T02:03:08.443Z,61.10
2017-08-25T02:05:36.034Z,61.10
2017-08-25T02:08:03.582Z,61.50
2017-08-25T02:10:31.105Z,61.80
2017-08-25T02:12:58.658Z,62.10
2017-08-25T02:15:26.186Z,61.90
2017-08-25T02:17:53.711Z,62.00
2017-08-25T02:20:21.260Z,61.80
2017-08-25T02:22:48.782Z,61.70
2017-08-25T02:25:16.342Z,61.60
2017-08-25T02:27:43.886Z,61.50
2017-08-25T02:30:11.410Z,61.60
2017-08-25T02:32:38.946Z,61.50
2017-08-25T02:35:06.470Z,61.80
2017-08-25T02:37:34.030Z,62.00
2017-08-25T02:40:01.557Z,62.00
2017-08-25T02:42:29.081Z,62.30
2017-08-25T02:44:56.607Z,61.90
2017-08-25T02:47:24.131Z,61.60
2017-08-25T02:49:51.686Z,61.80
2017-08-25T02:52:19.218Z,61.80
2017-08-25T02:54:46.745Z,61.80
2017-08-25T02:57:14.270Z,61.80
2017-08-25T02:59:41.802Z,61.80
2017-08-25T03:02:09.360Z,61.90
2017-08-25T03:04:36.889Z,61.80
2017-08-25T03:07:04.415Z,62.00
2017-08-25T03:09:32.046Z,62.30
2017-08-25T03:11:59.574Z,62.30
2017-08-25T03:14:27.126Z,62.30
2017-08-25T03:16:55.437Z,62.40
2017-08-25T03:19:22.965Z,62.30
2017-08-25T03:21:51.282Z,62.50
2017-08-25T03:24:18.797Z,62.50
2017-08-25T03:26:46.357Z,62.70
2017-08-25T03:29:13.882Z,62.80
2017-08-25T03:31:41.414Z,63.00
2017-08-25T03:34:08.942Z,63.60
2017-08-25T03:36:36.469Z,64.10
2017-08-25T03:39:04.022Z,64.30
2017-08-25T03:41:31.550Z,64.50
2017-08-25T03:43:59.081Z,63.80
2017-08-25T03:46:26.614Z,64.00
2017-08-25T03:48:54.143Z,64.30
2017-08-25T03:51:21.687Z,64.40
2017-08-25T03:53:49.214Z,64.60
2017-08-25T03:56:16.738Z,64.60
2017-08-25T03:58:45.038Z,64.90
2017-08-25T04:01:12.579Z,64.80
2017-08-25T04:03:40.131Z,64.90
2017-08-25T04:06:07.662Z,64.80
2017-08-25T04:08:35.196Z,64.70
2017-08-25T04:11:02.730Z,65.20
2017-08-25T04:13:30.261Z,65.00
2017-08-25T04:15:57.819Z,64.70
2017-08-25T04:18:25.338Z,64.10
2017-08-25T04:20:52.875Z,64.00
2017-08-25T04:23:20.402Z,63.80
2017-08-25T04:25:48.700Z,63.70
2017-08-25T04:28:16.254Z,63.70
2017-08-25T04:30:43.781Z,63.70
2017-08-25T04:33:11.313Z,63.70
2017-08-25T04:35:38.834Z,63.90
2017-08-25T04:38:06.353Z,64.00
2017-08-25T04:40:33.917Z,63.70
2017-08-25T04:43:01.530Z,63.50
2017-08-25T04:45:29.097Z,63.50
2017-08-25T04:47:56.628Z,63.50
2017-08-25T04:50:24.166Z,63.40
2017-08-25T04:52:51.730Z,63.50
2017-08-25T04:55:20.043Z,63.10
2017-08-25T04:57:47.578Z,63.00
2017-08-25T05:00:15.101Z,62.80
2017-08-25T05:02:42.621Z,62.60
2017-08-25T05:05:10.174Z,62.80
2017-08-25T05:07:37.702Z,63.00
2017-08-25T05:10:05.238Z,63.00
2017-08-25T05:12:32.770Z,62.60
2017-08-25T05:15:00.300Z,62.40
2017-08-25T05:17:28.034Z,62.00
2017-08-25T05:19:55.568Z,62.50
2017-08-25T05:22:23.093Z,62.20
2017-08-25T05:24:50.617Z,61.50
2017-08-25T05:27:18.146Z,61.00
2017-08-25T05:29:45.698Z,60.80
2017-08-25T05:32:13.230Z,60.50
2017-08-25T05:34:40.771Z,60.40
2017-08-25T05:37:08.301Z,60.20
2017-08-25T05:39:35.831Z,60.20
2017-08-25T05:42:03.403Z,59.90
2017-08-25T05:44:30.930Z,59.80
2017-08-25T05:46:58.470Z,59.80
2017-08-25T05:49:26.001Z,59.60
2017-08-25T05:51:53.542Z,59.40
2017-08-25T05:54:21.101Z,59.50
2017-08-25T05:56:48.706Z,59.60
2017-08-25T05:59:16.234Z,59.30
2017-08-25T06:01:43.762Z,59.30
2017-08-25T06:04:11.286Z,59.00
2017-08-25T06:06:38.838Z,58.70
2017-08-25T06:09:06.370Z,58.80
2017-08-25T06:11:33.897Z,58.40
2017-08-25T06:14:01.462Z,58.00
2017-08-25T06:21:05.474Z,58.00
2017-08-25T06:23:32.999Z,59.80
2017-08-25T06:26:00.566Z,60.50
2017-08-25T06:28:28.090Z,59.90
2017-08-25T06:30:56.386Z,58.80
2017-08-25T06:33:23.942Z,58.80
2017-08-25T06:35:51.476Z,58.10
2017-08-25T06:38:19.009Z,58.60
2017-08-25T06:40:46.542Z,58.80
2017-08-25T06:43:14.070Z,58.70
2017-08-25T06:45:41.621Z,58.40
2017-08-25T06:48:09.160Z,58.20
2017-08-25T06:50:36.686Z,58.30
2017-08-25T06:53:04.220Z,58.70
2017-08-25T06:55:31.745Z,58.90
2017-08-25T06:57:59.303Z,58.40
2017-08-25T07:00:26.829Z,57.90
2017-08-25T07:02:54.355Z,57.50
2017-08-25T07:05:21.881Z,57.60
2017-08-25T07:07:49.407Z,58.40
2017-08-25T07:10:16.962Z,58.50
2017-08-25T07:12:44.498Z,58.30
2017-08-25T07:15:12.053Z,58.10
2017-08-25T07:17:39.582Z,58.10
2017-08-25T07:20:07.874Z,58.40
2017-08-25T07:22:35.430Z,58.30
2017-08-25T07:25:02.961Z,58.80
2017-08-25T07:27:30.485Z,59.00
2017-08-25T07:29:58.011Z,58.60
2017-08-25T07:32:25.542Z,58.10
2017-08-25T07:34:53.094Z,57.60
2017-08-25T07:37:20.641Z,57.20
2017-08-25T07:39:48.165Z,57.00
2017-08-25T07:42:15.689Z,56.90
2017-08-25T07:44:43.229Z,57.10
2017-08-25T07:47:10.784Z,56.10
2017-08-25T07:49:38.318Z,56.50
2017-08-25T07:52:05.848Z,57.10
2017-08-25T07:54:33.373Z,57.50
2017-08-25T07:57:00.962Z,56.80
2017-08-25T07:59:28.515Z,56.10
2017-08-25T08:01:56.040Z,55.60
2017-08-25T08:04:24.330Z,56.40
2017-08-25T08:06:51.857Z,56.40
2017-08-25T08:09:19.389Z,56.30
2017-08-25T08:11:46.944Z,56.50
2017-08-25T08:14:14.473Z,56.50
2017-08-25T08:16:42.004Z,54.70
2017-08-25T08:19:09.530Z,54.90
2017-08-25T08:21:37.058Z,55.70
2017-08-25T08:24:04.619Z,55.30
2017-08-25T08:26:32.145Z,54.80
2017-08-25T08:28:59.682Z,53.90
2017-08-25T08:31:27.218Z,54.10
2017-08-25T08:33:54.737Z,52.50
2017-08-25T08:36:27.950Z,52.20
2017-08-25T08:38:55.478Z,52.00
2017-08-25T08:41:23.013Z,52.40
2017-08-25T08:43:50.552Z,51.20
2017-08-25T08:46:18.089Z,51.40
2017-08-25T08:48:45.638Z,51.50
2017-08-25T08:51:13.167Z,51.30
2017-08-25T08:53:40.761Z,50.50
2017-08-25T08:56:08.289Z,49.60
2017-08-25T08:58:35.826Z,50.20
2017-08-25T09:01:04.147Z,49.60
2017-08-25T09:03:31.670Z,49.50
2017-08-25T09:06:04.797Z,49.00
2017-08-25T09:08:32.322Z,47.70
2017-08-25T09:10:59.862Z,48.30
2017-08-25T09:13:27.394Z,49.10
2017-08-25T09:15:54.929Z,49.00
2017-08-25T09:18:22.482Z,48.50
2017-08-25T09:20:50.018Z,48.80
2017-08-25T09:23:17.565Z,48.50
2017-08-25T09:25:45.857Z,50.00
2017-08-25T09:28:13.402Z,49.90
2017-08-25T09:30:41.718Z,49.30
2017-08-25T09:33:09.251Z,49.30
2017-08-25T09:35:36.788Z,49.50
2017-08-25T09:38:05.085Z,49.60
2017-08-25T09:40:32.610Z,49.60
2017-08-25T09:43:00.171Z,49.40
2017-08-25T09:45:27.698Z,49.10
2017-08-25T09:47:55.233Z,47.90
2017-08-25T09:50:22.762Z,47.90
2017-08-25T09:52:50.290Z,46.50
2017-08-25T09:55:17.842Z,45.90
2017-08-25T09:57:45.383Z,46.30
2017-08-25T10:00:12.905Z,45.60
2017-08-25T10:02:41.204Z,45.00
2017-08-25T10:05:08.734Z,44.90
2017-08-25T10:07:37.061Z,44.60
2017-08-25T10:10:04.582Z,44.60
2017-08-25T10:12:32.109Z,40.40
2017-08-25T10:14:59.638Z,41.20
2017-08-25T10:17:27.181Z,40.80
2017-08-25T10:19:54.747Z,39.30
2017-08-25T10:22:22.270Z,39.00
2017-08-25T10:24:49.794Z,39.20
2017-08-25T10:27:17.322Z,38.80
2017-08-25T10:29:44.850Z,38.10
2017-08-25T10:32:12.402Z,37.00
2017-08-25T10:34:51.698Z,38.20
2017-08-25T10:37:43.995Z,37.10
2017-08-25T10:40:23.307Z,37.10
2017-08-25T10:43:02.730Z,36.80
2017-08-25T10:45:30.258Z,36.70
2017-08-25T10:47:57.783Z,37.50
2017-08-25T10:50:25.309Z,38.20
2017-08-25T10:52:52.830Z,38.40
2017-08-25T10:55:20.380Z,38.00
2017-08-25T10:57:47.906Z,38.00
2017-08-25T11:00:15.434Z,38.50
2017-08-25T11:02:42.962Z,38.00
2017-08-25T11:05:10.490Z,38.40
2017-08-25T11:07:38.050Z,37.30
2017-08-25T11:10:05.586Z,37.80
2017-08-25T11:12:33.185Z,36.80
2017-08-25T11:15:00.710Z,35.80
2017-08-25T11:17:28.247Z,34.60
2017-08-25T11:19:55.803Z,34.80
2017-08-25T11:22:23.371Z,35.20
2017-08-25T11:24:51.665Z,37.00
2017-08-25T11:27:19.191Z,37.00
2017-08-25T11:29:46.727Z,35.70
2017-08-25T11:32:14.425Z,34.80
2017-08-25T11:34:42.754Z,35.00
2017-08-25T11:37:10.282Z,34.90
2017-08-25T11:39:37.805Z,34.60
2017-08-25T11:42:05.427Z,32.70
2017-08-25T11:44:32.992Z,32.60
2017-08-25T11:47:00.528Z,32.00
2017-08-25T11:49:28.061Z,32.10
2017-08-25T11:51:55.593Z,32.60
2017-08-25T11:54:23.125Z,30.50
2017-08-25T11:56:50.683Z,30.70
2017-08-25T11:59:18.222Z,29.50
2017-08-25T12:01:45.749Z,29.20
2017-08-25T12:04:13.278Z,28.70
2017-08-25T12:06:40.806Z,28.20
2017-08-25T12:09:08.354Z,27.30
2017-08-25T12:11:35.918Z,27.40
2017-08-25T12:14:03.470Z,28.20
2017-08-25T12:16:30.997Z,28.20
2017-08-25T12:18:58.606Z,28.00
2017-08-25T12:21:26.158Z,26.10
2017-08-25T12:23:53.689Z,25.80
2017-08-25T12:26:21.222Z,25.90
2017-08-25T12:28:48.746Z,26.60
2017-08-25T12:31:16.299Z,25.00
2017-08-25T12:33:44.065Z,25.50
2017-08-25T12:36:11.594Z,25.00
2017-08-25T12:38:39.130Z,22.90
2017-08-25T12:41:06.667Z,23.20
2017-08-25T12:43:34.190Z,22.50
2017-08-25T12:46:01.748Z,22.00
2017-08-25T12:48:29.278Z,22.50
2017-08-25T12:50:56.809Z,22.40
2017-08-25T12:53:24.329Z,22.10
2017-08-25T12:55:51.858Z,21.80
2017-08-25T12:58:19.414Z,21.00
2017-08-25T13:00:46.950Z,20.70
2017-08-25T13:03:14.469Z,20.20
2017-08-25T13:05:41.999Z,19.80
2017-08-25T13:08:09.518Z,19.90
2017-08-25T13:10:37.073Z,19.70
2017-08-25T13:13:04.594Z,19.30
2017-08-25T13:15:32.130Z,19.50
2017-08-25T13:17:59.658Z,19.80
2017-08-25T13:20:27.181Z,19.00
2017-08-25T13:22:54.726Z,18.50
2017-08-25T13:25:22.249Z,18.60
2017-08-25T13:27:49.787Z,18.00
2017-08-25T13:30:17.306Z,18.40
2017-08-25T13:32:44.836Z,19.20
2017-08-25T13:35:12.422Z,19.60
2017-08-25T13:37:39.953Z,19.50
2017-08-25T13:40:07.482Z,18.30
2017-08-25T13:42:36.012Z,18.10
2017-08-25T13:45:03.536Z,18.20
2017-08-25T13:47:31.086Z,18.40
2017-08-25T13:49:58.609Z,18.80
2017-08-25T13:52:26.138Z,18.40
2017-08-25T13:54:53.660Z,18.70
2017-08-25T13:57:21.269Z,18.00
2017-08-25T13:59:48.802Z,18.30
2017-08-25T14:02:16.321Z,18.10
2017-08-25T14:04:43.846Z,18.50
2017-08-25T14:07:11.366Z,19.80
2017-08-25T14:09:38.899Z,20.30
2017-08-25T14:12:06.438Z,20.60
2017-08-25T14:14:33.965Z,21.70
2017-08-25T14:17:01.506Z,20.70
2017-08-25T14:19:29.033Z,21.40
2017-08-25T14:21:56.597Z,20.80
2017-08-25T14:24:24.934Z,19.90
2017-08-25T14:26:52.462Z,19.90
2017-08-25T14:29:19.989Z,20.90
2017-08-25T14:31:47.526Z,21.30
2017-08-25T14:34:15.056Z,21.60
2017-08-25T14:36:42.620Z,21.50
2017-08-25T14:39:10.150Z,21.80
2017-08-25T14:41:37.666Z,21.20
2017-08-25T14:44:05.185Z,20.50
2017-08-25T14:46:32.715Z,19.60
2017-08-25T14:49:00.269Z,19.30
2017-08-25T14:51:27.794Z,19.40
2017-08-25T14:53:55.343Z,18.80
2017-08-25T14:56:22.882Z,18.30
2017-08-25T14:58:50.426Z,17.80
2017-08-25T15:01:17.997Z,18.00
2017-08-25T15:03:45.528Z,18.30
2017-08-25T15:06:13.066Z,18.40
2017-08-25T15:08:40.600Z,18.40
2017-08-25T15:11:08.125Z,18.80
2017-08-25T15:13:35.678Z,19.10
2017-08-25T15:16:03.200Z,19.10
2017-08-25T15:18:30.731Z,19.00
2017-08-25T15:20:58.250Z,18.70
2017-08-25T15:23:25.776Z,18.60
2017-08-25T15:25:53.343Z,18.70
2017-08-25T15:28:20.953Z,18.70
2017-08-25T15:30:48.480Z,18.70
2017-08-25T15:33:16.012Z,18.90
2017-08-25T15:35:43.533Z,19.40
2017-08-25T15:38:11.153Z,19.20
2017-08-25T15:40:38.674Z,19.80
2017-08-25T15:43:06.198Z,19.80
2017-08-25T15:45:33.730Z,19.60
2017-08-25T15:48:01.255Z,19.50
2017-08-25T15:50:28.817Z,19.60
2017-08-25T15:52:56.338Z,19.60
2017-08-25T15:55:23.869Z,19.90
2017-08-25T15:57:51.394Z,19.90
2017-08-25T16:00:18.942Z,20.30
2017-08-25T16:02:46.503Z,20.80
2017-08-25T16:05:14.058Z,20.90
2017-08-25T16:07:41.594Z,21.00
2017-08-25T16:10:09.121Z,21.60
2017-08-25T16:12:36.650Z,21.70
2017-08-25T16:15:04.210Z,22.10
2017-08-25T16:17:31.757Z,22.50
2017-08-25T16:19:59.290Z,23.10
2017-08-25T16:22:26.818Z,23.90
2017-08-25T16:24:54.394Z,24.50
2017-08-25T16:27:21.950Z,25.60
2017-08-25T16:29:49.473Z,26.40
2017-08-25T16:32:17.010Z,27.20
2017-08-25T16:34:44.537Z,27.50
2017-08-25T16:37:12.061Z,28.20
2017-08-25T16:39:39.621Z,28.40
2017-08-25T16:42:07.145Z,28.90
2017-08-25T16:44:34.662Z,29.20
2017-08-25T16:47:02.203Z,29.40
2017-08-25T16:49:29.734Z,29.70
2017-08-25T16:51:57.293Z,29.70
2017-08-25T16:54:24.818Z,30.00
2017-08-25T16:56:52.346Z,30.30
2017-08-25T16:59:19.888Z,30.70
2017-08-25T17:01:47.417Z,30.90
2017-08-25T17:04:14.973Z,31.40
2017-08-25T17:06:42.501Z,31.00
2017-08-25T17:09:10.031Z,31.70
2017-08-25T17:11:37.562Z,32.30
2017-08-25T17:14:05.086Z,33.00
2017-08-25T17:16:32.642Z,33.10
2017-08-25T17:19:00.183Z,33.70
2017-08-25T17:21:27.710Z,33.70
2017-08-25T17:23:55.237Z,34.80
2017-08-25T17:26:22.850Z,34.40
2017-08-25T17:28:50.399Z,34.90
2017-08-25T17:31:17.922Z,35.30
2017-08-25T17:33:45.458Z,35.80
2017-08-25T17:36:12.982Z,35.70
2017-08-25T17:38:40.520Z,36.30
2017-08-25T17:41:08.075Z,36.70
2017-08-25T17:43:35.603Z,37.40
2017-08-25T17:46:03.134Z,37.70
2017-08-25T17:48:30.658Z,37.90
2017-08-25T17:50:58.186Z,38.40
2017-08-25T17:53:25.743Z,38.50
2017-08-25T17:55:53.369Z,38.80
2017-08-25T17:58:20.917Z,39.00
2017-08-25T18:00:48.470Z,39.40
2017-08-25T18:03:15.998Z,39.80
2017-08-25T18:05:43.558Z,39.70
2017-08-25T18:08:11.087Z,40.10
2017-08-25T18:10:38.622Z,40.30
2017-08-25T18:13:06.145Z,40.60
2017-08-25T18:15:33.666Z,41.30
2017-08-25T18:18:01.218Z,41.40
2017-08-25T18:20:28.749Z,42.20
2017-08-25T18:22:56.274Z,42.40
2017-08-25T18:25:23.812Z,42.30
2017-08-25T18:27:51.338Z,42.20
2017-08-25T18:30:18.902Z,42.60
2017-08-25T18:32:46.429Z,43.10
2017-08-25T18:35:13.998Z,43.30
2017-08-25T18:37:41.526Z,43.30
2017-08-25T18:40:09.822Z,43.80
2017-08-25T18:42:37.376Z,43.80
2017-08-25T18:45:04.902Z,43.70
2017-08-25T18:47:32.426Z,43.80
2017-08-25T18:49:59.955Z,43.70
2017-08-25T18:52:27.485Z,43.60
2017-08-25T18:54:55.044Z,44.10
2017-08-25T18:57:23.338Z,44.60
2017-08-25T18:59:50.866Z,44.50
2017-08-25T19:02:18.394Z,44.60
2017-08-25T19:04:45.924Z,44.80
2017-08-25T19:07:13.485Z,44.70
2017-08-25T19:09:41.017Z,45.00
2017-08-25T19:12:08.538Z,45.40
2017-08-25T19:14:36.094Z,45.40
2017-08-25T19:17:03.626Z,45.70
2017-08-25T19:19:31.178Z,45.60
2017-08-25T19:21:58.701Z,45.50
2017-08-25T19:24:26.230Z,45.60
2017-08-25T19:26:53.762Z,45.90
2017-08-25T19:29:21.296Z,46.00
2017-08-25T19:31:48.848Z,46.30
2017-08-25T19:34:16.374Z,46.20
2017-08-25T19:36:43.901Z,46.30
2017-08-25T19:39:11.430Z,46.80
2017-08-25T19:41:39.012Z,46.60
2017-08-25T19:44:06.562Z,46.80
2017-08-25T19:46:34.087Z,46.70
2017-08-25T19:49:01.617Z,46.80
2017-08-25T19:51:29.161Z,47.00
2017-08-25T19:53:56.699Z,47.00
2017-08-25T19:56:24.273Z,47.30
2017-08-25T19:58:51.799Z,47.50
2017-08-25T20:01:19.334Z,47.80
2017-08-25T20:03:46.871Z,47.90
2017-08-25T20:06:14.406Z,47.70
2017-08-25T20:08:41.963Z,47.80
2017-08-25T20:11:09.494Z,48.30
2017-08-25T20:13:37.034Z,48.20
2017-08-25T20:16:05.339Z,48.10
2017-08-25T20:18:32.871Z,48.10
2017-08-25T20:21:00.433Z,48.30
2017-08-25T20:23:27.961Z,48.20
2017-08-25T20:25:55.494Z,48.30
2017-08-25T20:28:23.026Z,48.50
2017-08-25T20:30:50.560Z,48.70
2017-08-25T20:33:18.113Z,48.50
2017-08-25T20:35:45.659Z,48.80
2017-08-25T20:38:13.189Z,49.10
2017-08-25T20:40:40.826Z,49.10
2017-08-25T20:43:08.359Z,49.20
2017-08-25T20:45:36.759Z,49.10
2017-08-25T20:48:04.329Z,49.20
2017-08-25T20:50:31.849Z,49.70
2017-08-25T20:52:59.444Z,49.90
2017-08-25T20:55:26.983Z,49.90
2017-08-25T20:57:54.535Z,50.30
2017-08-25T21:00:22.058Z,50.40
2017-08-25T21:02:49.586Z,50.50
2017-08-25T21:05:17.114Z,50.60
2017-08-25T21:07:44.639Z,50.50
2017-08-25T21:10:12.193Z,50.60
2017-08-25T21:12:39.728Z,50.60
2017-08-25T21:15:07.260Z,50.90
2017-08-25T21:17:34.789Z,51.20
2017-08-25T21:20:02.317Z,51.30
2017-08-25T21:22:29.865Z,51.60
2017-08-25T21:24:57.390Z,51.70
2017-08-25T21:27:24.919Z,51.80
2017-08-25T21:29:52.451Z,51.80
2017-08-25T21:32:19.973Z,52.10
2017-08-25T21:34:47.533Z,51.90
2017-08-25T21:37:15.066Z,51.90
2017-08-25T21:39:42.593Z,52.00
2017-08-25T21:42:10.210Z,52.10
2017-08-25T21:44:37.755Z,52.20
2017-08-25T21:47:05.320Z,52.30
2017-08-25T21:49:32.846Z,52.60
2017-08-25T21:52:00.382Z,52.70
2017-08-25T21:54:27.912Z,52.80
2017-08-25T21:56:55.444Z,53.10
2017-08-25T21:59:22.998Z,52.90
2017-08-25T22:01:50.526Z,53.20
2017-08-25T22:04:18.055Z,53.10
2017-08-25T22:06:45.589Z,53.20
2017-08-25T22:09:13.113Z,53.40
2017-08-25T22:11:40.670Z,53.60
2017-08-25T22:14:08.966Z,53.60
2017-08-25T22:16:36.504Z,53.50
2017-08-25T22:19:04.034Z,53.80
2017-08-25T22:21:31.662Z,54.10
2017-08-25T22:23:59.218Z,54.20
2017-08-25T22:26:26.746Z,54.10
2017-08-25T22:28:54.273Z,54.10
2017-08-25T22:31:21.806Z,54.20
2017-08-25T22:33:49.333Z,54.20
2017-08-25T22:36:16.882Z,54.30
2017-08-25T22:38:44.418Z,54.40
2017-08-25T22:41:11.942Z,54.50
2017-08-25T22:43:39.469Z,54.90
2017-08-25T22:46:06.994Z,54.30
2017-08-25T22:48:34.550Z,54.10
2017-08-25T22:51:02.081Z,54.20
2017-08-25T22:53:29.614Z,54.30
2017-08-25T22:55:57.140Z,54.50
2017-08-25T22:58:24.662Z,54.90
2017-08-25T23:00:52.310Z,55.20
2017-08-25T23:03:19.866Z,55.20
2017-08-25T23:05:47.386Z,55.30
2017-08-25T23:08:14.922Z,55.30
2017-08-25T23:10:42.445Z,54.90
2017-08-25T23:13:10.014Z,56.10
2017-08-25T23:15:37.543Z,55.60
2017-08-25T23:18:05.109Z,55.50
2017-08-25T23:20:32.629Z,55.10
2017-08-25T23:23:00.918Z,55.20
2017-08-25T23:25:28.470Z,55.10
2017-08-25T23:27:56.758Z,55.10
2017-08-25T23:30:24.294Z,55.00
2017-08-25T23:32:52.589Z,55.50
2017-08-25T23:35:20.174Z,55.40
2017-08-25T23:37:47.724Z,55.70
2017-08-25T23:40:15.286Z,55.70
2017-08-25T23:42:42.806Z,55.70
2017-08-25T23:45:10.340Z,55.70
2017-08-25T23:47:37.867Z,55.70
2017-08-25T23:50:05.429Z,55.90
2017-08-25T23:52:32.955Z,55.80
2017-08-25T23:55:00.490Z,55.60
2017-08-25T23:57:28.021Z,55.80
2017-08-25T23:59:55.674Z,55.70
